createdAt,value
2023-03-24T00:02:22.665Z,97540.25
2023-03-24T00:05:00.771Z,97541.69
2023-03-24T00:07:40.269Z,97530.16
2023-03-24T00:10:13.248Z,97538.00
2023-03-24T00:12:47.837Z,97531.59
2023-03-24T00:15:25.348Z,97534.69
2023-03-24T00:18:02.279Z,97528.91
2023-03-24T00:20:33.434Z,97532.00
2023-03-24T00:23:04.275Z,97533.41
2023-03-24T00:25:38.658Z,97527.25
2023-03-24T00:28:13.286Z,97535.88
2023-03-24T00:30:45.237Z,97528.84
2023-03-24T00:33:15.210Z,97534.22
2023-03-24T00:35:48.539Z,97522.47
2023-03-24T00:38:20.513Z,97533.81
2023-03-24T00:40:53.399Z,97537.53
2023-03-24T00:43:24.150Z,97551.53
2023-03-24T00:46:02.195Z,97547.41
2023-03-24T00:48:38.529Z,97556.66
2023-03-24T00:51:13.978Z,97555.22
2023-03-24T00:53:43.788Z,97553.97
2023-03-24T00:56:15.716Z,97562.41
2023-03-24T00:58:44.366Z,97561.75
2023-03-24T01:01:12.912Z,97565.47
2023-03-24T01:03:50.895Z,97557.84
2023-03-24T01:06:22.433Z,97562.56
2023-03-24T01:08:54.510Z,97564.22
2023-03-24T01:11:24.361Z,97555.53
2023-03-24T01:13:54.714Z,97571.63
2023-03-24T01:16:26.015Z,97568.56
2023-03-24T01:18:54.452Z,97573.31
2023-03-24T01:21:25.490Z,97574.13
2023-03-24T01:23:55.487Z,97578.69
2023-03-24T01:26:24.134Z,97576.19
2023-03-24T01:28:52.399Z,97572.91
2023-03-24T01:31:21.136Z,97567.53
2023-03-24T01:33:49.611Z,97560.53
2023-03-24T01:36:17.735Z,97564.66
2023-03-24T01:38:46.202Z,97566.53
2023-03-24T01:41:16.044Z,97564.66
2023-03-24T01:43:44.603Z,97560.97
2023-03-24T01:46:17.561Z,97554.19
2023-03-24T01:48:51.059Z,97549.84
2023-03-24T01:51:20.849Z,97544.06
2023-03-24T01:53:53.149Z,97550.72
2023-03-24T01:56:23.327Z,97548.03
2023-03-24T01:58:53.071Z,97549.06
2023-03-24T02:01:35.889Z,97545.16
2023-03-24T02:04:17.120Z,97551.53
2023-03-24T02:06:46.910Z,97549.28
2023-03-24T02:09:16.900Z,97540.00
2023-03-24T02:11:47.082Z,97549.47
2023-03-24T02:14:15.717Z,97557.31
2023-03-24T02:16:55.159Z,97552.81
2023-03-24T02:19:47.802Z,97554.03
2023-03-24T02:22:27.128Z,97554.03
2023-03-24T02:25:06.029Z,97556.13
2023-03-24T02:27:49.403Z,97551.78
2023-03-24T02:30:32.596Z,97547.06
2023-03-24T02:33:17.456Z,97545.41
2023-03-24T02:36:07.755Z,97540.47
2023-03-24T02:39:01.779Z,97544.16
2023-03-24T02:41:33.966Z,97538.19
2023-03-24T02:44:06.186Z,97537.38
2023-03-24T02:46:37.756Z,97527.66
2023-03-24T02:49:12.116Z,97525.19
2023-03-24T02:51:47.362Z,97520.25
2023-03-24T02:54:17.746Z,97529.31
2023-03-24T02:56:51.386Z,97519.66
2023-03-24T02:59:51.435Z,97513.66
2023-03-24T03:02:41.182Z,97515.72
2023-03-24T03:05:14.047Z,97523.16
2023-03-24T03:07:44.781Z,97520.66
2023-03-24T03:10:16.588Z,97523.97
2023-03-24T03:12:50.642Z,97527.25
2023-03-24T03:15:22.567Z,97519.84
2023-03-24T03:17:54.380Z,97529.28
2023-03-24T03:20:24.503Z,97523.91
2023-03-24T03:22:54.911Z,97527.63
2023-03-24T03:25:24.904Z,97520.22
2023-03-24T03:27:56.824Z,97521.22
2023-03-24T03:30:27.593Z,97516.47
2023-03-24T03:32:58.066Z,97513.34
2023-03-24T03:35:29.290Z,97515.59
2023-03-24T03:38:01.173Z,97510.25
2023-03-24T03:40:34.299Z,97507.34
2023-03-24T03:43:11.935Z,97516.22
2023-03-24T03:45:41.422Z,97518.06
2023-03-24T03:48:10.316Z,97513.56
2023-03-24T03:50:39.108Z,97515.22
2023-03-24T03:53:09.703Z,97509.84
2023-03-24T03:55:38.344Z,97514.78
2023-03-24T03:58:06.860Z,97509.00
2023-03-24T04:00:44.380Z,97520.75
2023-03-24T04:03:54.172Z,97516.81
2023-03-24T04:06:37.949Z,97517.25
2023-03-24T04:09:11.254Z,97526.31
2023-03-24T04:11:50.364Z,97519.25
2023-03-24T04:14:51.891Z,97515.28
2023-03-24T04:17:47.429Z,97521.22
2023-03-24T04:20:27.497Z,97504.28
2023-03-24T04:23:03.705Z,97505.53
2023-03-24T04:25:35.403Z,97502.22
2023-03-24T04:28:10.163Z,97510.47
2023-03-24T04:30:43.060Z,97509.19
2023-03-24T04:33:22.505Z,97505.88
2023-03-24T04:35:55.553Z,97507.91
2023-03-24T04:38:33.389Z,97512.03
2023-03-24T04:41:18.209Z,97498.63
2023-03-24T04:43:55.036Z,97503.34
2023-03-24T04:46:23.754Z,97513.25
2023-03-24T04:49:03.016Z,97504.53
2023-03-24T04:51:34.431Z,97503.88
2023-03-24T04:54:06.110Z,97512.56
2023-03-24T04:56:42.366Z,97511.34
2023-03-24T04:59:17.827Z,97518.19
2023-03-24T05:01:50.025Z,97502.09
2023-03-24T05:04:37.323Z,97507.00
2023-03-24T05:07:27.338Z,97502.47
2023-03-24T05:09:59.763Z,97503.72
2023-03-24T05:12:28.135Z,97504.97
2023-03-24T05:15:14.158Z,97508.47
2023-03-24T05:17:43.396Z,97518.19
2023-03-24T05:20:15.246Z,97521.03
2023-03-24T05:22:46.853Z,97516.28
2023-03-24T05:25:16.026Z,97521.00
2023-03-24T05:27:44.102Z,97525.09
2023-03-24T05:30:25.145Z,97518.94
2023-03-24T05:32:59.707Z,97513.56
2023-03-24T05:35:29.553Z,97515.41
2023-03-24T05:37:58.229Z,97508.19
2023-03-24T05:40:26.887Z,97509.03
2023-03-24T05:43:08.249Z,97503.06
2023-03-24T05:45:41.556Z,97509.69
2023-03-24T05:48:11.963Z,97504.13
2023-03-24T05:51:17.558Z,97497.56
2023-03-24T05:53:47.157Z,97517.41
2023-03-24T05:56:15.253Z,97514.94
2023-03-24T05:59:02.040Z,97518.06
2023-03-24T06:01:49.532Z,97519.09
2023-03-24T06:04:30.924Z,97520.94
2023-03-24T06:07:07.342Z,97520.53
2023-03-24T06:09:40.866Z,97536.19
2023-03-24T06:12:11.371Z,97530.59
2023-03-24T06:14:46.116Z,97532.84
2023-03-24T06:17:15.430Z,97532.19
2023-03-24T06:19:49.652Z,97537.56
2023-03-24T06:22:34.784Z,97526.03
2023-03-24T06:25:05.012Z,97527.69
2023-03-24T06:27:36.014Z,97526.25
2023-03-24T06:30:05.760Z,97519.91
2023-03-24T06:32:34.371Z,97521.78
2023-03-24T06:35:02.946Z,97526.56
2023-03-24T06:37:40.019Z,97521.22
2023-03-24T06:40:14.075Z,97510.91
2023-03-24T06:42:49.681Z,97522.00
2023-03-24T06:45:18.489Z,97530.25
2023-03-24T06:47:48.892Z,97520.75
2023-03-24T06:50:17.208Z,97534.53
2023-03-24T06:52:46.707Z,97527.09
2023-03-24T06:55:17.399Z,97535.53
2023-03-24T06:57:45.641Z,97531.81
2023-03-24T07:00:40.454Z,97529.34
2023-03-24T07:03:28.958Z,97535.13
2023-03-24T07:06:18.541Z,97538.00
2023-03-24T07:08:52.447Z,97530.13
2023-03-24T07:11:22.480Z,97541.22
2023-03-24T07:13:59.916Z,97541.56
2023-03-24T07:16:29.686Z,97538.63
2023-03-24T07:19:11.738Z,97530.91
2023-03-24T07:21:42.224Z,97527.59
2023-03-24T07:24:11.835Z,97523.59
2023-03-24T07:26:54.638Z,97528.06
2023-03-24T07:29:25.597Z,97529.69
2023-03-24T07:32:11.517Z,97530.81
2023-03-24T07:34:39.949Z,97536.53
2023-03-24T07:37:07.989Z,97533.16
2023-03-24T07:39:37.455Z,97530.84
2023-03-24T07:42:06.474Z,97536.97
2023-03-24T07:44:54.332Z,97533.13
2023-03-24T07:47:22.445Z,97537.31
2023-03-24T07:49:51.164Z,97536.41
2023-03-24T07:52:19.712Z,97535.72
2023-03-24T07:54:54.127Z,97529.31
2023-03-24T07:57:39.797Z,97522.34
2023-03-24T08:00:15.119Z,97530.13
2023-03-24T08:02:55.247Z,97525.59
2023-03-24T08:05:43.570Z,97540.22
2023-03-24T08:08:24.142Z,97538.28
2023-03-24T08:10:53.909Z,97535.78
2023-03-24T08:13:22.602Z,97528.69
2023-03-24T08:15:51.464Z,97522.25
2023-03-24T08:18:20.887Z,97525.09
2023-03-24T08:20:49.040Z,97524.09
2023-03-24T08:23:18.003Z,97518.22
2023-03-24T08:25:47.885Z,97518.91
2023-03-24T08:28:17.665Z,97520.84
2023-03-24T08:30:46.031Z,97514.28
2023-03-24T08:33:14.878Z,97516.16
2023-03-24T08:35:43.211Z,97516.28
2023-03-24T08:38:12.083Z,97511.00
2023-03-24T08:40:41.909Z,97511.59
2023-03-24T08:43:11.276Z,97505.25
2023-03-24T08:45:40.933Z,97517.00
2023-03-24T08:48:09.393Z,97501.28
2023-03-24T08:50:39.007Z,97499.00
2023-03-24T08:53:07.565Z,97494.94
2023-03-24T08:55:37.906Z,97499.84
2023-03-24T08:58:06.134Z,97488.31
2023-03-24T09:00:34.617Z,97484.97
2023-03-24T09:03:04.244Z,97483.66
2023-03-24T09:05:44.085Z,97468.09
2023-03-24T09:08:12.920Z,97462.16
2023-03-24T09:10:41.242Z,97461.13
2023-03-24T09:13:09.538Z,97451.13
2023-03-24T09:15:38.059Z,97455.78
2023-03-24T09:18:08.034Z,97431.97
2023-03-24T09:20:36.409Z,97448.56
2023-03-24T09:23:04.714Z,97465.63
2023-03-24T09:25:32.725Z,97477.50
2023-03-24T09:28:01.885Z,97480.69
2023-03-24T09:30:31.323Z,97483.19
2023-03-24T09:33:00.270Z,97479.31
2023-03-24T09:35:30.287Z,97480.59
2023-03-24T09:37:58.442Z,97480.66
2023-03-24T09:40:27.796Z,97482.38
2023-03-24T09:42:59.495Z,97473.03
2023-03-24T09:45:34.913Z,97473.28
2023-03-24T09:48:16.775Z,97479.09
2023-03-24T09:51:04.220Z,97494.56
2023-03-24T09:53:37.107Z,97499.59
2023-03-24T09:56:10.780Z,97485.78
2023-03-24T09:58:41.692Z,97493.50
2023-03-24T10:01:14.021Z,97483.31
2023-03-24T10:03:42.426Z,97490.03
2023-03-24T10:06:14.111Z,97479.81
2023-03-24T10:08:43.375Z,97473.69
2023-03-24T10:11:17.203Z,97478.41
2023-03-24T10:13:52.287Z,97461.13
2023-03-24T10:16:24.453Z,97470.38
2023-03-24T10:18:58.103Z,97464.75
2023-03-24T10:21:28.260Z,97464.34
2023-03-24T10:24:02.933Z,97455.16
2023-03-24T10:26:37.332Z,97444.09
2023-03-24T10:29:13.079Z,97443.13
2023-03-24T10:31:42.532Z,97437.41
2023-03-24T10:34:12.612Z,97425.91
2023-03-24T10:36:43.698Z,97423.44
2023-03-24T10:39:20.017Z,97406.75
2023-03-24T10:41:53.333Z,97412.38
2023-03-24T10:44:22.832Z,97415.88
2023-03-24T10:46:52.916Z,97405.66
2023-03-24T10:49:21.618Z,97401.09
2023-03-24T10:51:52.036Z,97405.66
2023-03-24T10:54:21.630Z,97400.88
2023-03-24T10:56:51.296Z,97401.44
2023-03-24T10:59:21.308Z,97404.66
2023-03-24T11:01:49.670Z,97412.25
2023-03-24T11:04:20.281Z,97403.47
2023-03-24T11:07:01.359Z,97405.16
2023-03-24T11:09:30.188Z,97410.38
2023-03-24T11:12:04.012Z,97403.09
2023-03-24T11:14:32.974Z,97405.78
2023-03-24T11:17:11.493Z,97381.97
2023-03-24T11:19:40.201Z,97374.03
2023-03-24T11:22:12.541Z,97371.16
2023-03-24T11:24:41.392Z,97375.69
2023-03-24T11:27:15.974Z,97388.50
2023-03-24T11:29:44.701Z,97384.28
2023-03-24T11:32:15.027Z,97383.53
2023-03-24T11:34:47.073Z,97377.16
2023-03-24T11:37:20.063Z,97388.91
2023-03-24T11:40:11.035Z,97389.16
2023-03-24T11:42:44.087Z,97377.25
2023-03-24T11:45:22.601Z,97379.47
2023-03-24T11:47:52.832Z,97380.03
2023-03-24T11:50:23.816Z,97376.16
2023-03-24T11:52:54.985Z,97387.97
2023-03-24T11:55:29.070Z,97396.53
2023-03-24T11:57:59.416Z,97412.47
2023-03-24T12:00:32.265Z,97410.22
2023-03-24T12:03:21.407Z,97411.13
2023-03-24T12:05:53.626Z,97400.56
2023-03-24T12:08:33.803Z,97384.56
2023-03-24T12:11:18.738Z,97408.50
2023-03-24T12:13:49.763Z,97403.09
2023-03-24T12:16:39.322Z,97390.59
2023-03-24T12:19:26.939Z,97387.59
2023-03-24T12:21:59.600Z,97390.28
2023-03-24T12:24:39.367Z,97381.00
2023-03-24T12:27:09.411Z,97380.75
2023-03-24T12:29:43.644Z,97383.53
2023-03-24T12:32:23.046Z,97375.34
2023-03-24T12:35:06.467Z,97356.84
2023-03-24T12:37:39.799Z,97359.59
2023-03-24T12:40:22.370Z,97370.47
2023-03-24T12:42:56.960Z,97366.63
2023-03-24T12:45:31.126Z,97351.16
2023-03-24T12:48:09.769Z,97351.97
2023-03-24T12:50:43.243Z,97344.63
2023-03-24T12:53:17.987Z,97344.59
2023-03-24T12:55:49.674Z,97342.72
2023-03-24T12:58:22.806Z,97347.00
2023-03-24T13:00:59.347Z,97365.44
2023-03-24T13:03:30.488Z,97365.88
2023-03-24T13:06:10.920Z,97359.81
2023-03-24T13:08:49.558Z,97358.38
2023-03-24T13:11:32.862Z,97383.50
2023-03-24T13:14:04.533Z,97381.81
2023-03-24T13:16:35.396Z,97401.63
2023-03-24T13:19:04.388Z,97399.47
2023-03-24T13:21:35.458Z,97403.78
2023-03-24T13:24:09.360Z,97417.41
2023-03-24T13:26:41.417Z,97418.50
2023-03-24T13:29:15.903Z,97480.91
2023-03-24T13:31:47.223Z,97461.13
2023-03-24T13:34:24.329Z,97453.72
2023-03-24T13:37:00.562Z,97441.53
2023-03-24T13:39:36.204Z,97427.91
2023-03-24T13:42:25.240Z,97450.47
2023-03-24T13:44:57.152Z,97448.66
2023-03-24T13:47:26.799Z,97443.84
2023-03-24T13:50:03.314Z,97443.75
2023-03-24T13:52:38.352Z,97460.97
2023-03-24T13:55:13.128Z,97469.84
2023-03-24T13:57:57.977Z,97495.75
2023-03-24T14:00:29.009Z,97476.59
2023-03-24T14:03:03.312Z,97466.38
2023-03-24T14:05:46.574Z,97472.03
2023-03-24T14:08:20.276Z,97468.69
2023-03-24T14:10:55.301Z,97467.28
2023-03-24T14:13:42.904Z,97474.03
2023-03-24T14:16:40.560Z,97471.44
2023-03-24T14:19:26.044Z,97462.28
2023-03-24T14:22:00.388Z,97480.47
2023-03-24T14:24:33.020Z,97451.09
2023-03-24T14:27:06.823Z,97452.88
2023-03-24T14:29:53.456Z,97454.19
2023-03-24T14:32:30.828Z,97450.53
2023-03-24T14:35:05.861Z,97450.31
2023-03-24T14:37:38.497Z,97458.34
2023-03-24T14:40:29.550Z,97459.19
2023-03-24T14:43:08.067Z,97467.13
2023-03-24T14:46:01.306Z,97476.03
2023-03-24T14:48:38.180Z,97482.75
2023-03-24T14:51:25.879Z,97498.38
2023-03-24T14:53:58.680Z,97504.88
2023-03-24T14:56:32.965Z,97516.06
2023-03-24T14:59:09.866Z,97511.34
2023-03-24T15:01:43.790Z,97515.09
2023-03-24T15:04:18.894Z,97529.81
2023-03-24T15:06:53.583Z,97532.38
2023-03-24T15:09:22.288Z,97536.41
2023-03-24T15:11:51.094Z,97531.16
2023-03-24T15:14:29.548Z,97530.09
2023-03-24T15:17:11.000Z,97536.69
2023-03-24T15:19:47.265Z,97535.94
2023-03-24T15:22:16.239Z,97551.34
2023-03-24T15:24:50.215Z,97547.41
2023-03-24T15:27:23.109Z,97561.28
2023-03-24T15:30:00.088Z,97561.19
2023-03-24T15:32:41.672Z,97562.81
2023-03-24T15:35:18.502Z,97569.03
2023-03-24T15:37:53.355Z,97569.97
2023-03-24T15:40:34.234Z,97567.84
2023-03-24T15:43:04.668Z,97575.84
2023-03-24T15:45:36.872Z,97574.44
2023-03-24T15:48:12.079Z,97587.59
2023-03-24T15:51:00.595Z,97581.22
2023-03-24T15:53:36.184Z,97589.06
2023-03-24T15:56:11.260Z,97582.63
2023-03-24T15:58:48.517Z,97579.09
2023-03-24T16:01:22.272Z,97576.59
2023-03-24T16:03:51.907Z,97567.53
2023-03-24T16:06:27.255Z,97559.34
2023-03-24T16:08:57.098Z,97576.34
2023-03-24T16:11:25.330Z,97574.56
2023-03-24T16:13:53.357Z,97570.09
2023-03-24T16:16:27.514Z,97590.41
2023-03-24T16:18:56.611Z,97595.38
2023-03-24T16:21:27.977Z,97602.41
2023-03-24T16:23:57.730Z,97591.41
2023-03-24T16:26:26.915Z,97601.38
2023-03-24T16:28:57.732Z,97631.47
2023-03-24T16:31:27.886Z,97645.59
2023-03-24T16:33:58.047Z,97645.81
2023-03-24T16:36:28.906Z,97659.88
2023-03-24T16:38:58.717Z,97662.66
2023-03-24T16:41:26.910Z,97673.09
2023-03-24T16:43:54.996Z,97664.28
2023-03-24T16:46:31.242Z,97672.28
2023-03-24T16:49:00.028Z,97672.16
2023-03-24T16:51:30.129Z,97677.09
2023-03-24T16:53:58.618Z,97677.13
2023-03-24T16:56:26.746Z,97689.53
2023-03-24T16:58:56.471Z,97689.88
2023-03-24T17:01:29.880Z,97683.50
2023-03-24T17:03:59.310Z,97691.78
2023-03-24T17:06:28.239Z,97683.50
2023-03-24T17:08:58.194Z,97689.06
2023-03-24T17:11:27.791Z,97693.81
2023-03-24T17:13:57.444Z,97695.25
2023-03-24T17:16:26.017Z,97691.09
2023-03-24T17:18:54.678Z,97700.25
2023-03-24T17:21:23.057Z,97704.56
2023-03-24T17:23:55.001Z,97710.22
2023-03-24T17:26:25.426Z,97712.25
2023-03-24T17:28:54.014Z,97715.59
2023-03-24T17:31:22.136Z,97721.78
2023-03-24T17:33:50.856Z,97723.81
2023-03-24T17:36:19.118Z,97709.00
2023-03-24T17:38:48.087Z,97726.72
2023-03-24T17:41:16.360Z,97725.69
2023-03-24T17:43:46.683Z,97734.34
2023-03-24T17:46:14.962Z,97715.16
2023-03-24T17:48:46.259Z,97738.31
2023-03-24T17:51:15.568Z,97757.50
2023-03-24T17:53:45.328Z,97759.34
2023-03-24T17:56:13.632Z,97761.41
2023-03-24T17:58:41.907Z,97768.69
2023-03-24T18:01:14.970Z,97767.00
2023-03-24T18:03:43.611Z,97774.63
2023-03-24T18:06:13.321Z,97766.78
2023-03-24T18:08:41.543Z,97779.94
2023-03-24T18:11:10.637Z,97775.66
2023-03-24T18:13:39.309Z,97785.16
2023-03-24T18:16:19.921Z,97792.44
2023-03-24T18:18:51.915Z,97794.91
2023-03-24T18:21:21.204Z,97787.88
2023-03-24T18:23:50.128Z,97795.94
2023-03-24T18:26:18.833Z,97796.56
2023-03-24T18:28:46.985Z,97794.28
2023-03-24T18:31:16.740Z,97799.84
2023-03-24T18:33:46.306Z,97812.50
2023-03-24T18:36:22.168Z,97818.47
2023-03-24T18:38:50.587Z,97822.00
2023-03-24T18:41:18.783Z,97821.34
2023-03-24T18:43:48.233Z,97834.56
2023-03-24T18:46:17.365Z,97834.19
2023-03-24T18:48:46.653Z,97844.16
2023-03-24T18:51:16.509Z,97842.88
2023-03-24T18:53:44.720Z,97855.94
2023-03-24T18:56:14.499Z,97846.84
2023-03-24T18:58:43.540Z,97848.91
2023-03-24T19:01:12.797Z,97844.78
2023-03-24T19:03:42.256Z,97849.94
2023-03-24T19:06:12.061Z,97844.34
2023-03-24T19:08:42.673Z,97861.75
2023-03-24T19:11:11.242Z,97855.31
2023-03-24T19:13:40.089Z,97850.81
2023-03-24T19:16:09.272Z,97863.22
2023-03-24T19:18:37.886Z,97863.41
2023-03-24T19:21:07.177Z,97872.72
2023-03-24T19:23:35.554Z,97867.34
2023-03-24T19:26:05.586Z,97891.31
2023-03-24T19:28:36.265Z,97896.06
2023-03-24T19:31:08.798Z,97903.31
2023-03-24T19:33:38.006Z,97917.19
2023-03-24T19:36:07.651Z,97910.78
2023-03-24T19:38:36.231Z,97912.84
2023-03-24T19:41:07.512Z,97920.91
2023-03-24T19:43:36.992Z,97924.81
2023-03-24T19:46:05.767Z,97937.25
2023-03-24T19:48:34.248Z,97931.47
2023-03-24T19:51:02.909Z,97946.75
2023-03-24T19:53:31.320Z,97939.75
2023-03-24T19:55:59.948Z,97943.84
2023-03-24T19:58:29.485Z,97957.09
2023-03-24T20:00:58.333Z,97948.63
2023-03-24T20:03:29.030Z,97966.19
2023-03-24T20:05:57.362Z,97969.50
2023-03-24T20:08:26.218Z,97980.66
2023-03-24T20:10:54.768Z,97984.78
2023-03-24T20:13:24.258Z,97979.84
2023-03-24T20:15:54.021Z,97986.47
2023-03-24T20:18:22.564Z,97992.00
2023-03-24T20:20:50.623Z,97997.59
2023-03-24T20:23:18.634Z,98016.63
2023-03-24T20:25:46.805Z,98016.22
2023-03-24T20:28:14.925Z,98021.59
2023-03-24T20:30:45.280Z,98030.28
2023-03-24T20:33:14.875Z,98017.84
2023-03-24T20:35:44.791Z,98032.75
2023-03-24T20:38:13.196Z,98041.63
2023-03-24T20:40:41.339Z,98043.50
2023-03-24T20:43:09.845Z,98050.09
2023-03-24T20:45:37.903Z,98066.84
2023-03-24T20:48:06.057Z,98070.56
2023-03-24T20:50:36.939Z,98073.69
2023-03-24T20:53:05.729Z,98091.88
2023-03-24T20:55:34.057Z,98088.56
2023-03-24T20:58:02.830Z,98080.09
2023-03-24T21:00:32.340Z,98084.81
2023-03-24T21:03:00.638Z,98088.56
2023-03-24T21:05:28.820Z,98092.25
2023-03-24T21:07:58.526Z,98091.44
2023-03-24T21:10:27.000Z,98100.13
2023-03-24T21:12:55.797Z,98096.19
2023-03-24T21:15:25.145Z,98103.44
2023-03-24T21:17:53.926Z,98106.72
2023-03-24T21:20:22.628Z,98121.22
2023-03-24T21:22:55.619Z,98128.25
2023-03-24T21:25:26.015Z,98136.06
2023-03-24T21:27:54.398Z,98128.66
2023-03-24T21:30:23.867Z,98135.47
2023-03-24T21:32:53.076Z,98146.41
2023-03-24T21:35:21.955Z,98142.88
2023-03-24T21:37:50.660Z,98147.25
2023-03-24T21:40:19.849Z,98144.72
2023-03-24T21:42:50.017Z,98149.28
2023-03-24T21:45:19.251Z,98152.38
2023-03-24T21:47:48.767Z,98155.88
2023-03-24T21:50:19.175Z,98157.56
2023-03-24T21:52:48.027Z,98175.31
2023-03-24T21:55:19.155Z,98163.91
2023-03-24T21:57:52.066Z,98174.25
2023-03-24T22:00:22.028Z,98176.50
2023-03-24T22:02:52.762Z,98180.22
2023-03-24T22:05:23.130Z,98187.69
2023-03-24T22:07:51.810Z,98187.66
2023-03-24T22:10:23.575Z,98193.25
2023-03-24T22:12:54.050Z,98192.81
2023-03-24T22:15:24.092Z,98205.22
2023-03-24T22:17:52.246Z,98211.19
2023-03-24T22:20:21.584Z,98212.00
2023-03-24T22:22:52.478Z,98221.94
2023-03-24T22:25:22.691Z,98228.16
2023-03-24T22:27:53.099Z,98224.25
2023-03-24T22:30:23.378Z,98229.38
2023-03-24T22:32:51.783Z,98240.16
2023-03-24T22:35:21.496Z,98250.91
2023-03-24T22:37:49.891Z,98245.13
2023-03-24T22:40:18.120Z,98265.00
2023-03-24T22:42:46.523Z,98257.53
2023-03-24T22:45:14.818Z,98261.47
2023-03-24T22:47:44.507Z,98267.88
2023-03-24T22:50:13.077Z,98277.81
2023-03-24T22:52:41.545Z,98276.16
2023-03-24T22:55:10.492Z,98281.13
2023-03-24T22:57:38.817Z,98281.31
2023-03-24T23:00:08.521Z,98278.25
2023-03-24T23:02:36.982Z,98277.00
2023-03-24T23:05:10.267Z,98285.91
2023-03-24T23:07:39.371Z,98293.38
2023-03-24T23:10:09.895Z,98285.31
2023-03-24T23:12:38.130Z,98294.84
2023-03-24T23:15:08.840Z,98304.34
2023-03-24T23:17:38.158Z,98312.59
2023-03-24T23:20:10.766Z,98314.47
2023-03-24T23:22:39.655Z,98317.97
2023-03-24T23:25:08.449Z,98326.66
2023-03-24T23:27:38.795Z,98333.72
2023-03-24T23:30:09.504Z,98332.03
2023-03-24T23:32:39.019Z,98332.03
2023-03-24T23:35:10.158Z,98347.75
2023-03-24T23:37:39.674Z,98347.78
2023-03-24T23:40:13.074Z,98346.53
2023-03-24T23:42:41.715Z,98346.53
2023-03-24T23:45:15.806Z,98346.34
2023-03-24T23:47:44.229Z,98353.16
2023-03-24T23:50:15.179Z,98363.47
2023-03-24T23:52:44.290Z,98363.06
2023-03-24T23:55:13.425Z,98382.94
2023-03-24T23:57:42.360Z,98387.91
